Time;durP1;ratioP1;P1;durP2;ratioP2;P2;SDS_P1;SDS_P2;PMS_P1;PMS_P2;Temp;Humidity;BMP_temperature;BMP_pressure;BME280_temperature;BME280_humidity;BME280_pressure;Samples;Min_cycle;Max_cycle;Signal;HPM_P1;HPM_P2
2021/08/08 00:00:10;;;;;;;0.90;0.80;;;16.50;99.90;;;;;;5093248;28;20194;-71
2021/08/08 00:02:37;;;;;;;1.30;1.07;;;16.60;99.90;;;;;;5093224;28;20155;-71
2021/08/08 00:05:05;;;;;;;1.07;0.80;;;16.60;99.90;;;;;;5093879;28;20608;-71
2021/08/08 00:07:31;;;;;;;4.10;0.90;;;16.60;99.90;;;;;;5093735;28;20780;-71
2021/08/08 00:09:56;;;;;;;4.00;0.77;;;16.60;99.90;;;;;;5093069;28;20443;-71
2021/08/08 00:12:22;;;;;;;1.13;0.67;;;16.60;99.90;;;;;;5093220;28;20166;-71
2021/08/08 00:14:47;;;;;;;0.77;0.77;;;16.60;99.90;;;;;;5093126;28;20539;-71
2021/08/08 00:17:13;;;;;;;1.27;0.97;;;16.60;99.90;;;;;;5093093;28;20186;-71
2021/08/08 00:19:39;;;;;;;1.10;0.90;;;16.60;99.90;;;;;;5093053;28;20190;-71
2021/08/08 00:22:04;;;;;;;1.63;0.90;;;16.60;99.90;;;;;;5093369;28;20192;-71
2021/08/08 00:24:30;;;;;;;1.00;0.70;;;16.60;99.90;;;;;;5093442;28;20174;-70
2021/08/08 00:26:55;;;;;;;1.30;1.20;;;16.70;99.90;;;;;;5093259;28;20186;-71
2021/08/08 00:29:21;;;;;;;1.10;0.93;;;16.70;99.90;;;;;;5092812;28;20167;-71
2021/08/08 00:31:46;;;;;;;1.03;0.80;;;16.60;99.90;;;;;;5092711;28;20155;-71
2021/08/08 00:34:12;;;;;;;1.53;0.83;;;16.60;99.90;;;;;;5092817;28;20159;-71
2021/08/08 00:36:37;;;;;;;1.30;1.07;;;16.60;99.90;;;;;;5092780;28;20155;-71
2021/08/08 00:39:04;;;;;;;1.73;0.80;;;16.60;99.90;;;;;;5093369;28;20174;-71
2021/08/08 00:41:30;;;;;;;0.83;0.80;;;16.60;99.90;;;;;;5093722;28;20652;-71
2021/08/08 00:43:56;;;;;;;2.67;1.37;;;16.60;99.90;;;;;;5092635;28;20926;-71
2021/08/08 00:46:22;;;;;;;1.27;0.80;;;16.50;99.90;;;;;;5092537;28;20481;-71
2021/08/08 00:48:47;;;;;;;2.07;1.60;;;16.50;99.90;;;;;;5092396;28;20171;-71
2021/08/08 00:51:13;;;;;;;2.40;1.03;;;16.50;99.90;;;;;;5092429;28;20252;-71
2021/08/08 00:53:38;;;;;;;1.33;1.00;;;16.40;99.90;;;;;;5092516;28;20181;-71
2021/08/08 00:56:04;;;;;;;1.30;1.17;;;16.40;99.90;;;;;;5093666;28;20227;-71
2021/08/08 00:58:30;;;;;;;1.60;1.10;;;16.40;99.90;;;;;;5093332;28;20206;-71
2021/08/08 01:00:59;;;;;;;2.20;1.33;;;16.40;99.90;;;;;;5092520;28;20159;-71
2021/08/08 01:03:26;;;;;;;2.10;0.97;;;16.40;99.90;;;;;;5092616;28;20186;-71
2021/08/08 01:06:00;;;;;;;1.03;1.00;;;16.40;99.90;;;;;;5092440;28;20400;-71
2021/08/08 01:08:29;;;;;;;1.77;1.30;;;16.40;99.90;;;;;;5092465;28;20880;-71
2021/08/08 01:10:56;;;;;;;1.43;1.33;;;16.40;99.90;;;;;;5092561;28;20927;-71
2021/08/08 01:13:22;;;;;;;1.63;1.07;;;16.40;99.90;;;;;;5092970;28;20405;-71
2021/08/08 01:15:50;;;;;;;2.40;1.27;;;16.40;99.90;;;;;;5099282;28;20416;-71
2021/08/08 01:18:16;;;;;;;2.47;2.00;;;16.40;99.90;;;;;;5112707;28;20741;-71
2021/08/08 01:20:44;;;;;;;3.33;1.70;;;16.40;99.90;;;;;;5112800;28;20465;-71
2021/08/08 01:23:12;;;;;;;1.23;1.13;;;16.40;99.90;;;;;;5112592;28;20445;-71
2021/08/08 01:25:38;;;;;;;2.87;1.80;;;16.40;99.90;;;;;;5113091;28;20396;-71
2021/08/08 01:28:05;;;;;;;3.30;1.90;;;16.40;99.90;;;;;;5112706;28;20953;-71
2021/08/08 01:30:30;;;;;;;2.07;1.87;;;16.40;99.90;;;;;;5111976;28;20781;-71
2021/08/08 01:33:05;;;;;;;3.83;1.77;;;16.40;99.90;;;;;;5111704;28;20415;-71
2021/08/08 01:35:31;;;;;;;2.37;2.03;;;16.40;99.90;;;;;;5112475;28;20160;-71
2021/08/08 01:37:58;;;;;;;1.90;1.77;;;16.50;99.90;;;;;;5112811;27;20865;-71
2021/08/08 01:40:31;;;;;;;4.20;1.70;;;16.50;99.90;;;;;;5107338;28;20538;-71
2021/08/08 01:42:59;;;;;;;2.13;1.30;;;16.50;99.90;;;;;;5092082;28;20424;-71
2021/08/08 01:45:25;;;;;;;2.77;1.40;;;16.50;99.90;;;;;;5092029;28;20431;-71
2021/08/08 01:47:56;;;;;;;2.90;2.20;;;16.50;99.90;;;;;;5092618;28;20420;-71
2021/08/08 01:50:22;;;;;;;3.00;1.90;;;16.50;99.90;;;;;;5092521;28;20571;-70
2021/08/08 01:52:48;;;;;;;3.07;1.93;;;16.50;99.90;;;;;;5092180;28;20395;-71
2021/08/08 01:55:15;;;;;;;2.70;1.20;;;16.50;99.90;;;;;;5092306;28;20396;-70
2021/08/08 01:57:41;;;;;;;3.87;1.70;;;16.50;99.90;;;;;;5093297;28;20877;-71
2021/08/08 02:00:08;;;;;;;2.10;1.73;;;16.50;99.90;;;;;;5095588;28;20428;-71
2021/08/08 02:02:33;;;;;;;2.60;1.80;;;16.50;99.90;;;;;;5095523;28;20766;-71
2021/08/08 02:05:00;;;;;;;3.10;1.50;;;16.50;99.90;;;;;;5096228;28;20416;-71
2021/08/08 02:07:25;;;;;;;1.83;1.40;;;16.50;99.90;;;;;;5096460;28;20167;-70
2021/08/08 02:09:51;;;;;;;4.10;1.30;;;16.50;99.90;;;;;;5095714;28;20494;-70
2021/08/08 02:12:17;;;;;;;6.10;1.90;;;16.50;99.90;;;;;;5095538;28;20283;-71
2021/08/08 02:14:42;;;;;;;5.00;1.77;;;16.50;99.90;;;;;;5112364;28;20170;-71
2021/08/08 02:17:08;;;;;;;2.23;1.60;;;16.50;99.90;;;;;;5115718;28;20155;-70
2021/08/08 02:19:33;;;;;;;3.83;2.13;;;16.50;99.90;;;;;;5115446;28;20629;-70
2021/08/08 02:22:00;;;;;;;1.60;1.50;;;16.50;99.90;;;;;;5105357;28;20236;-71
2021/08/08 02:24:26;;;;;;;2.13;1.40;;;16.50;99.90;;;;;;5095991;28;20174;-70
2021/08/08 02:26:52;;;;;;;4.03;1.87;;;16.50;99.90;;;;;;5095147;28;20899;-71
2021/08/08 02:29:17;;;;;;;1.70;1.50;;;16.50;99.90;;;;;;5095107;28;20242;-70
2021/08/08 02:31:44;;;;;;;2.63;1.80;;;16.50;99.90;;;;;;5094900;28;20212;-71
2021/08/08 02:34:13;;;;;;;2.13;2.00;;;16.50;99.90;;;;;;5095174;28;20159;-70
2021/08/08 02:36:39;;;;;;;2.23;1.90;;;16.50;99.90;;;;;;5095208;28;20381;-71
2021/08/08 02:39:04;;;;;;;1.87;1.40;;;16.50;99.90;;;;;;5095632;28;20420;-71
2021/08/08 02:41:30;;;;;;;2.30;1.40;;;16.50;99.90;;;;;;5102491;28;20409;-71
2021/08/08 02:43:56;;;;;;;3.87;1.83;;;16.50;99.90;;;;;;5095051;28;20165;-70
2021/08/08 02:46:23;;;;;;;1.70;1.60;;;16.50;99.90;;;;;;5094931;28;20155;-70
2021/08/08 02:48:48;;;;;;;2.50;1.27;;;16.50;99.90;;;;;;5094806;28;20420;-70
2021/08/08 02:51:23;;;;;;;2.37;1.50;;;16.50;99.90;;;;;;5095128;28;20545;-71
2021/08/08 02:53:49;;;;;;;2.40;1.50;;;16.50;99.90;;;;;;5095323;28;20237;-70
2021/08/08 02:56:14;;;;;;;1.80;1.53;;;16.40;99.90;;;;;;5095619;28;20488;-71
2021/08/08 02:58:40;;;;;;;2.90;1.40;;;16.50;99.90;;;;;;5094855;28;20202;-70
2021/08/08 03:01:07;;;;;;;3.67;1.60;;;16.50;99.90;;;;;;5094739;28;20279;-70
2021/08/08 03:03:33;;;;;;;1.73;1.20;;;16.40;99.90;;;;;;5094368;28;20170;-70
2021/08/08 03:05:59;;;;;;;4.10;1.70;;;16.50;99.90;;;;;;5094451;28;20823;-70
2021/08/08 03:08:25;;;;;;;1.80;1.40;;;16.40;99.90;;;;;;5094509;28;20429;-71
2021/08/08 03:10:51;;;;;;;2.47;1.40;;;16.40;99.90;;;;;;5094075;28;20493;-71
2021/08/08 03:13:16;;;;;;;3.13;1.40;;;16.40;99.90;;;;;;5106399;28;20411;-70
2021/08/08 03:15:42;;;;;;;3.87;1.77;;;16.40;99.90;;;;;;5113671;28;20534;-71
2021/08/08 03:18:07;;;;;;;3.43;1.53;;;16.40;99.90;;;;;;5114495;28;20150;-70
2021/08/08 03:20:33;;;;;;;3.00;1.90;;;16.40;99.90;;;;;;5114406;28;20155;-70
2021/08/08 03:22:59;;;;;;;2.43;1.60;;;16.40;99.90;;;;;;5114546;28;20626;-70
2021/08/08 03:25:24;;;;;;;3.13;1.77;;;16.40;99.90;;;;;;5114270;28;20400;-70
2021/08/08 03:27:50;;;;;;;3.97;1.90;;;16.40;99.90;;;;;;5114312;28;20614;-70
2021/08/08 03:30:16;;;;;;;2.50;1.77;;;16.40;99.90;;;;;;5113396;28;20222;-70
2021/08/08 03:32:42;;;;;;;5.00;1.73;;;16.40;99.90;;;;;;5113314;28;20408;-70
2021/08/08 03:35:08;;;;;;;6.37;2.47;;;16.40;99.90;;;;;;5114123;28;20391;-70
2021/08/08 03:37:34;;;;;;;2.20;1.67;;;16.40;99.90;;;;;;5114261;28;20157;-70
2021/08/08 03:40:00;;;;;;;6.37;2.37;;;16.40;99.90;;;;;;5111575;28;20396;-70
2021/08/08 03:42:25;;;;;;;5.00;2.20;;;16.30;99.90;;;;;;5093606;28;20158;-70
2021/08/08 03:44:52;;;;;;;4.20;1.73;;;16.30;99.90;;;;;;5093582;28;20238;-70
2021/08/08 03:47:19;;;;;;;3.67;1.73;;;16.20;99.90;;;;;;5094466;28;20180;-70
2021/08/08 03:49:45;;;;;;;2.90;1.93;;;16.20;99.90;;;;;;5094207;28;20978;-70
2021/08/08 03:52:10;;;;;;;2.50;1.73;;;16.10;99.90;;;;;;5093761;28;20396;-70
2021/08/08 03:54:36;;;;;;;3.53;1.60;;;16.10;99.90;;;;;;5093431;28;20166;-71
2021/08/08 03:57:02;;;;;;;1.93;1.83;;;16.10;99.90;;;;;;5093459;28;20158;-71
2021/08/08 03:59:27;;;;;;;1.60;1.50;;;16.10;99.90;;;;;;5093447;28;20226;-70
2021/08/08 04:01:53;;;;;;;2.40;2.20;;;16.10;99.90;;;;;;5095298;28;20162;-70
2021/08/08 04:04:18;;;;;;;3.50;1.40;;;16.10;99.90;;;;;;5094085;28;20174;-70
2021/08/08 04:06:44;;;;;;;6.27;2.37;;;16.10;99.90;;;;;;5094183;28;20181;-70
2021/08/08 04:09:09;;;;;;;3.60;2.13;;;16.00;99.90;;;;;;5093442;28;20154;-71
2021/08/08 04:11:36;;;;;;;3.50;2.13;;;16.00;99.90;;;;;;5093013;28;20205;-71
2021/08/08 04:14:01;;;;;;;7.50;2.30;;;16.00;99.90;;;;;;5093007;28;20173;-71
2021/08/08 04:16:27;;;;;;;2.63;1.87;;;15.90;99.90;;;;;;5093293;28;20392;-70
2021/08/08 04:18:53;;;;;;;3.93;1.60;;;15.90;99.90;;;;;;5093251;28;20158;-70
2021/08/08 04:21:18;;;;;;;3.37;1.50;;;15.90;99.90;;;;;;5093257;28;20618;-70
2021/08/08 04:23:44;;;;;;;4.83;2.40;;;15.90;99.90;;;;;;5093390;28;20579;-70
2021/08/08 04:26:09;;;;;;;3.03;1.80;;;15.90;99.90;;;;;;5092975;28;20648;-70
2021/08/08 04:28:39;;;;;;;2.37;1.40;;;15.90;99.90;;;;;;5093048;28;20230;-70
2021/08/08 04:31:06;;;;;;;3.70;1.80;;;16.00;99.90;;;;;;5093031;28;20187;-70
2021/08/08 04:33:32;;;;;;;3.80;2.20;;;16.00;99.90;;;;;;5093157;28;20417;-70
2021/08/08 04:35:58;;;;;;;2.97;1.47;;;16.00;99.90;;;;;;5092837;28;20440;-70
2021/08/08 04:38:23;;;;;;;4.10;2.10;;;16.00;99.90;;;;;;5093319;28;20797;-70
2021/08/08 04:40:49;;;;;;;3.27;1.90;;;16.00;99.90;;;;;;5093465;28;20183;-70
2021/08/08 04:43:14;;;;;;;4.00;1.97;;;16.00;99.90;;;;;;5099826;28;20180;-70
2021/08/08 04:45:40;;;;;;;2.90;1.77;;;16.00;99.90;;;;;;5113170;28;20217;-70
2021/08/08 04:48:05;;;;;;;2.40;1.80;;;16.10;99.90;;;;;;5113080;28;20702;-70
2021/08/08 04:50:31;;;;;;;7.43;2.13;;;16.10;99.90;;;;;;5112747;28;20670;-70
2021/08/08 04:52:56;;;;;;;4.87;2.40;;;16.10;99.90;;;;;;5113097;28;20161;-70
2021/08/08 04:55:22;;;;;;;6.93;1.90;;;16.10;99.90;;;;;;5112093;28;20166;-71
2021/08/08 04:57:48;;;;;;;3.13;1.90;;;16.10;99.90;;;;;;5112289;28;20229;-71
2021/08/08 05:00:13;;;;;;;3.30;1.70;;;16.10;99.90;;;;;;5112967;28;20383;-70
2021/08/08 05:02:48;;;;;;;2.00;1.90;;;16.20;99.90;;;;;;5113243;28;20162;-70
2021/08/08 05:05:14;;;;;;;3.97;2.10;;;16.20;99.90;;;;;;5113027;28;20180;-70
2021/08/08 05:07:41;;;;;;;6.90;2.00;;;16.20;99.90;;;;;;5112906;28;20404;-70
2021/08/08 05:10:10;;;;;;;3.13;2.50;;;16.10;99.90;;;;;;5112847;28;20448;-70
2021/08/08 05:12:36;;;;;;;3.50;2.00;;;16.20;99.90;;;;;;5104616;28;20409;-70
2021/08/08 05:15:01;;;;;;;3.40;2.30;;;16.20;99.90;;;;;;5093149;28;20408;-70
2021/08/08 05:17:27;;;;;;;5.27;2.00;;;16.30;99.90;;;;;;5092997;28;20393;-70
2021/08/08 05:19:52;;;;;;;5.90;2.30;;;16.30;99.90;;;;;;5092823;28;20166;-70
2021/08/08 05:22:18;;;;;;;3.50;1.90;;;16.30;99.90;;;;;;5092535;28;20525;-70
2021/08/08 05:24:43;;;;;;;3.23;2.13;;;16.40;99.90;;;;;;5092387;28;20199;-70
2021/08/08 05:27:09;;;;;;;7.53;1.90;;;16.30;99.90;;;;;;5092430;28;20639;-70
2021/08/08 05:29:35;;;;;;;3.40;1.77;;;16.40;99.90;;;;;;5092829;28;20185;-70
2021/08/08 05:32:00;;;;;;;5.03;2.53;;;16.40;99.90;;;;;;5093911;28;20185;-70
2021/08/08 05:34:26;;;;;;;3.23;1.80;;;16.40;99.90;;;;;;5096254;28;20159;-70
2021/08/08 05:36:51;;;;;;;3.67;2.20;;;16.50;99.90;;;;;;5096154;28;20674;-70
2021/08/08 05:39:17;;;;;;;3.57;2.53;;;16.50;99.90;;;;;;5096498;28;20179;-70
2021/08/08 05:41:42;;;;;;;5.30;1.60;;;16.50;99.90;;;;;;5096153;28;20634;-70
2021/08/08 05:44:08;;;;;;;6.43;2.73;;;16.60;99.90;;;;;;5095951;28;20683;-70
2021/08/08 05:46:33;;;;;;;2.67;1.90;;;16.60;99.90;;;;;;5097145;28;20190;-70
2021/08/08 05:48:59;;;;;;;2.87;1.83;;;16.60;99.90;;;;;;5096482;28;20174;-70
2021/08/08 05:51:24;;;;;;;2.03;1.80;;;16.60;99.90;;;;;;5095956;28;20243;-70
2021/08/08 05:53:50;;;;;;;4.47;2.03;;;16.60;99.90;;;;;;5096096;28;20182;-70
2021/08/08 05:56:15;;;;;;;4.33;1.93;;;16.60;99.90;;;;;;5096063;28;20234;-70
2021/08/08 05:58:41;;;;;;;4.40;2.40;;;16.60;99.90;;;;;;5095775;28;20186;-70
2021/08/08 06:01:07;;;;;;;2.67;1.97;;;16.60;99.90;;;;;;5096116;28;20519;-70
2021/08/08 06:03:32;;;;;;;7.90;2.20;;;16.60;99.90;;;;;;5096162;28;20337;-71
2021/08/08 06:05:58;;;;;;;2.43;1.93;;;16.60;99.90;;;;;;5096148;28;20170;-71
2021/08/08 06:08:23;;;;;;;5.10;2.13;;;16.60;99.90;;;;;;5095743;28;20167;-71
2021/08/08 06:10:49;;;;;;;6.10;2.60;;;16.60;99.90;;;;;;5095525;28;20186;-71
2021/08/08 06:13:15;;;;;;;9.23;3.60;;;16.60;99.90;;;;;;5095499;28;20238;-71
2021/08/08 06:15:40;;;;;;;3.37;1.80;;;16.60;99.90;;;;;;5112782;28;20518;-71
2021/08/08 06:18:06;;;;;;;3.73;1.87;;;16.60;99.90;;;;;;5115995;28;20515;-71
2021/08/08 06:20:31;;;;;;;5.87;2.40;;;16.70;99.90;;;;;;5101177;28;20166;-71
2021/08/08 06:22:57;;;;;;;3.60;1.83;;;16.80;99.90;;;;;;5096120;28;20175;-71
2021/08/08 06:25:22;;;;;;;3.17;1.80;;;16.90;99.90;;;;;;5095286;28;20212;-71
2021/08/08 06:27:48;;;;;;;2.20;2.00;;;16.90;99.90;;;;;;5095504;28;20166;-71
2021/08/08 06:30:14;;;;;;;4.80;1.60;;;17.00;99.90;;;;;;5095758;28;20194;-71
2021/08/08 06:32:39;;;;;;;2.13;1.90;;;17.00;99.90;;;;;;5095372;28;20158;-71
2021/08/08 06:35:06;;;;;;;2.43;1.60;;;17.10;99.90;;;;;;5095347;28;20528;-71
2021/08/08 06:37:32;;;;;;;3.60;2.03;;;17.20;99.90;;;;;;5095542;28;20174;-71
2021/08/08 06:39:58;;;;;;;5.27;2.20;;;17.30;99.90;;;;;;5095508;28;20412;-71
2021/08/08 06:42:24;;;;;;;5.13;1.60;;;17.30;99.90;;;;;;5095262;28;20420;-71
2021/08/08 06:44:50;;;;;;;2.47;1.70;;;17.50;99.90;;;;;;5095307;28;20470;-71
2021/08/08 06:47:15;;;;;;;2.77;1.50;;;17.60;99.90;;;;;;5094952;28;20470;-71
2021/08/08 06:49:41;;;;;;;3.03;1.70;;;17.70;99.90;;;;;;5094955;28;20179;-71
2021/08/08 06:52:06;;;;;;;1.60;1.50;;;17.80;99.90;;;;;;5094892;28;20148;-71
2021/08/08 06:54:32;;;;;;;2.60;2.40;;;17.80;99.90;;;;;;5095437;28;20165;-71
2021/08/08 06:56:57;;;;;;;4.00;1.87;;;17.90;99.90;;;;;;5095197;28;20183;-71
2021/08/08 06:59:29;;;;;;;3.90;1.70;;;18.00;99.90;;;;;;5095004;28;20247;-71
2021/08/08 07:01:55;;;;;;;2.93;1.83;;;18.10;99.90;;;;;;5094812;28;20188;-71
2021/08/08 07:04:20;;;;;;;2.37;1.33;;;18.10;99.90;;;;;;5094703;28;20399;-71
2021/08/08 07:06:46;;;;;;;2.00;1.33;;;18.10;99.90;;;;;;5094484;28;20167;-71
2021/08/08 07:09:11;;;;;;;2.47;1.70;;;18.20;99.90;;;;;;5094478;28;20162;-71
2021/08/08 07:11:37;;;;;;;1.83;1.10;;;18.20;99.90;;;;;;5094898;28;20183;-71
2021/08/08 07:14:03;;;;;;;1.80;1.20;;;18.30;99.90;;;;;;5095293;28;20519;-71
2021/08/08 07:16:28;;;;;;;3.13;1.90;;;18.30;99.90;;;;;;5094411;28;20550;-71
2021/08/08 07:18:54;;;;;;;2.97;1.40;;;18.30;99.90;;;;;;5094504;28;20394;-71
2021/08/08 07:21:20;;;;;;;3.73;1.60;;;18.30;99.90;;;;;;5094161;28;20168;-71
2021/08/08 07:23:45;;;;;;;4.53;1.83;;;18.20;99.90;;;;;;5094154;28;20178;-71
2021/08/08 07:26:11;;;;;;;2.93;1.80;;;18.20;99.90;;;;;;5094200;28;20159;-71
2021/08/08 07:28:36;;;;;;;2.33;1.57;;;18.20;99.90;;;;;;5095525;28;20232;-71
2021/08/08 07:31:02;;;;;;;1.80;1.70;;;18.20;99.90;;;;;;5094497;28;20290;-71
2021/08/08 07:33:27;;;;;;;3.10;1.83;;;18.20;99.90;;;;;;5094076;28;20156;-71
2021/08/08 07:35:53;;;;;;;2.60;1.97;;;18.20;99.90;;;;;;5093991;28;20155;-71
2021/08/08 07:38:19;;;;;;;3.20;1.57;;;18.10;99.90;;;;;;5093772;28;20160;-71
2021/08/08 07:40:44;;;;;;;3.00;1.67;;;18.10;99.90;;;;;;5093809;28;20174;-71
2021/08/08 07:43:12;;;;;;;5.67;1.83;;;18.10;99.90;;;;;;5094322;28;20175;-71
2021/08/08 07:45:38;;;;;;;3.67;2.20;;;18.10;99.90;;;;;;5094654;28;20171;-71
2021/08/08 07:48:04;;;;;;;1.90;1.57;;;18.20;99.90;;;;;;5094407;28;20443;-71
2021/08/08 07:50:29;;;;;;;3.83;1.63;;;18.20;99.90;;;;;;5093643;28;20513;-71
2021/08/08 07:52:55;;;;;;;2.73;1.90;;;18.30;99.90;;;;;;5093645;28;20204;-71
2021/08/08 07:55:21;;;;;;;2.10;1.57;;;18.40;99.90;;;;;;5093138;28;20241;-71
2021/08/08 07:57:47;;;;;;;4.87;1.77;;;18.60;99.90;;;;;;5093975;28;20177;-71
2021/08/08 08:00:12;;;;;;;6.87;2.30;;;18.70;99.90;;;;;;5093574;28;20432;-71
2021/08/08 08:02:38;;;;;;;5.13;1.40;;;18.70;99.90;;;;;;5093885;28;20638;-71
2021/08/08 08:05:05;;;;;;;2.83;1.60;;;18.90;99.90;;;;;;5094186;28;20187;-71
2021/08/08 08:07:30;;;;;;;2.70;1.70;;;19.00;99.90;;;;;;5093310;28;20174;-71
2021/08/08 08:09:56;;;;;;;2.70;2.50;;;19.40;99.90;;;;;;5093543;28;20490;-71
2021/08/08 08:12:22;;;;;;;2.37;1.33;;;20.10;99.90;;;;;;5094200;28;20159;-71
2021/08/08 08:14:47;;;;;;;3.63;1.20;;;20.90;99.90;;;;;;5093655;28;20204;-71
2021/08/08 08:17:13;;;;;;;2.20;1.43;;;21.60;99.90;;;;;;5093245;28;20177;-71
2021/08/08 08:19:38;;;;;;;1.80;1.50;;;22.20;99.90;;;;;;5093789;28;20163;-71
2021/08/08 08:22:04;;;;;;;4.07;2.63;;;22.40;99.90;;;;;;5093661;28;20597;-71
2021/08/08 08:24:29;;;;;;;1.97;1.30;;;22.70;99.90;;;;;;5093346;28;20173;-71
2021/08/08 08:26:55;;;;;;;2.17;1.30;;;22.60;98.40;;;;;;5093420;28;20208;-71
2021/08/08 08:29:20;;;;;;;3.80;1.40;;;22.40;98.20;;;;;;5093108;28;20208;-71
2021/08/08 08:31:46;;;;;;;3.40;1.40;;;22.30;98.70;;;;;;5092914;28;20190;-71
2021/08/08 08:34:12;;;;;;;2.80;1.67;;;22.00;98.40;;;;;;5092818;28;20199;-71
2021/08/08 08:36:37;;;;;;;1.77;1.30;;;22.00;99.30;;;;;;5093466;28;20194;-71
2021/08/08 08:39:03;;;;;;;2.13;1.20;;;21.60;99.30;;;;;;5093585;28;20563;-71
2021/08/08 08:41:30;;;;;;;2.03;1.37;;;21.50;99.20;;;;;;5093311;28;20158;-71
2021/08/08 08:44:01;;;;;;;4.43;2.40;;;21.60;99.50;;;;;;5092750;28;20169;-71
2021/08/08 08:46:27;;;;;;;4.50;1.77;;;21.60;99.40;;;;;;5092860;28;20392;-71
2021/08/08 08:48:55;;;;;;;2.67;1.23;;;21.70;99.30;;;;;;5092874;28;20401;-71
2021/08/08 08:51:27;;;;;;;3.50;1.63;;;21.90;99.40;;;;;;5092718;28;20443;-71
2021/08/08 08:53:54;;;;;;;3.83;1.60;;;22.70;98.60;;;;;;5093361;28;20412;-71
2021/08/08 08:56:19;;;;;;;5.37;1.77;;;24.00;96.50;;;;;;5093319;28;20434;-71
2021/08/08 08:58:45;;;;;;;4.13;1.40;;;24.50;93.60;;;;;;5092687;28;20419;-71
2021/08/08 09:01:11;;;;;;;3.50;1.30;;;24.90;93.70;;;;;;5092731;28;20635;-71
2021/08/08 09:03:37;;;;;;;1.23;1.00;;;25.30;92.40;;;;;;5092598;28;20381;-71
2021/08/08 09:06:04;;;;;;;1.73;1.13;;;25.80;90.40;;;;;;5092943;28;20169;-71
2021/08/08 09:08:29;;;;;;;2.33;1.00;;;26.00;89.70;;;;;;5097286;28;20389;-71
2021/08/08 09:11:04;;;;;;;4.03;1.87;;;25.60;87.20;;;;;;5097668;28;20447;-71
2021/08/08 09:13:30;;;;;;;6.13;2.10;;;25.20;87.00;;;;;;5096688;28;20214;-71
2021/08/08 09:15:55;;;;;;;3.33;1.40;;;25.30;86.80;;;;;;5096651;28;20373;-71
2021/08/08 09:18:22;;;;;;;2.57;1.30;;;25.30;85.00;;;;;;5096599;28;20604;-71
2021/08/08 09:20:50;;;;;;;4.33;1.63;;;25.00;85.70;;;;;;5096867;28;20174;-71
2021/08/08 09:23:16;;;;;;;2.70;1.77;;;24.70;87.40;;;;;;5096881;28;20796;-71
2021/08/08 09:25:57;;;;;;;2.20;1.57;;;24.40;88.80;;;;;;5096810;28;20489;-71
2021/08/08 09:28:31;;;;;;;5.40;1.47;;;24.20;89.50;;;;;;5096793;28;20924;-71
2021/08/08 09:30:57;;;;;;;4.00;1.80;;;24.10;89.80;;;;;;5096392;28;20440;-71
2021/08/08 09:33:23;;;;;;;3.10;1.60;;;24.10;90.10;;;;;;5096331;28;20796;-71
2021/08/08 09:35:53;;;;;;;7.03;1.60;;;23.80;88.70;;;;;;5096417;28;20424;-71
2021/08/08 09:38:20;;;;;;;7.63;1.80;;;23.60;90.20;;;;;;5096607;28;20212;-71
2021/08/08 09:40:56;;;;;;;3.23;1.83;;;23.40;90.30;;;;;;5095939;28;20415;-72
2021/08/08 09:43:25;;;;;;;3.53;1.60;;;23.20;91.20;;;;;;5096829;28;20507;-72
2021/08/08 09:45:51;;;;;;;4.37;1.43;;;23.10;92.20;;;;;;5096636;28;20852;-71
2021/08/08 09:48:17;;;;;;;3.07;1.60;;;23.00;90.90;;;;;;5096129;28;20499;-71
2021/08/08 09:50:44;;;;;;;3.30;1.67;;;22.90;91.00;;;;;;5097570;28;20244;-71
2021/08/08 09:53:16;;;;;;;2.27;1.63;;;22.90;91.60;;;;;;5096354;28;20628;-71
2021/08/08 09:55:42;;;;;;;2.70;1.43;;;22.80;90.90;;;;;;5096019;28;20397;-71
2021/08/08 10:00:49;;;;;;;3.00;1.50;;;22.70;90.60;;;;;;5082034;27;20923;-71
2021/08/08 10:03:16;;;;;;;3.97;1.67;;;22.50;91.40;;;;;;5071779;28;20438;-71
2021/08/08 10:05:44;;;;;;;2.60;1.70;;;22.40;92.40;;;;;;5070188;28;20428;-71
2021/08/08 10:08:12;;;;;;;5.33;2.50;;;22.30;92.70;;;;;;5070103;28;20879;-71
2021/08/08 10:10:40;;;;;;;7.67;2.00;;;22.20;92.90;;;;;;5069845;28;20386;-71
2021/08/08 10:13:46;;;;;;;2.77;1.87;;;22.20;92.70;;;;;;5069896;28;20784;-71
2021/08/08 10:16:14;;;;;;;2.67;1.80;;;22.20;93.00;;;;;;5068752;28;20493;-71
2021/08/08 10:18:54;;;;;;;2.80;1.53;;;22.40;93.00;;;;;;5070563;28;20544;-71
2021/08/08 10:21:20;;;;;;;2.63;1.50;;;22.50;91.90;;;;;;5069825;28;20886;-71
2021/08/08 10:23:49;;;;;;;1.47;1.37;;;22.80;93.50;;;;;;5069390;28;20780;-71
2021/08/08 10:26:14;;;;;;;2.63;1.63;;;23.10;91.90;;;;;;5069621;28;20912;-71
2021/08/08 10:28:41;;;;;;;2.13;1.20;;;23.30;93.00;;;;;;5069609;28;20406;-71
2021/08/08 10:31:07;;;;;;;4.47;1.80;;;23.50;91.30;;;;;;5069678;28;20172;-71
2021/08/08 10:33:51;;;;;;;6.13;1.77;;;23.50;90.20;;;;;;5069623;28;20398;-71
2021/08/08 10:36:24;;;;;;;2.80;1.60;;;23.50;89.90;;;;;;5069488;28;20824;-71
2021/08/08 10:38:52;;;;;;;2.17;1.50;;;23.50;91.40;;;;;;5069095;28;20446;-71
2021/08/08 10:41:18;;;;;;;2.53;1.70;;;23.40;90.90;;;;;;5069035;28;20440;-71
2021/08/08 10:43:44;;;;;;;3.40;1.30;;;23.20;91.20;;;;;;5069198;28;20864;-71
2021/08/08 10:46:12;;;;;;;2.73;1.37;;;23.20;91.50;;;;;;5069242;28;20417;-71
2021/08/08 10:48:40;;;;;;;2.43;1.10;;;23.20;92.00;;;;;;5069639;28;20456;-71
2021/08/08 10:51:24;;;;;;;4.47;2.00;;;23.40;93.10;;;;;;5069268;28;20504;-71
2021/08/08 10:54:07;;;;;;;3.03;1.97;;;23.50;92.10;;;;;;5068734;28;20417;-71
2021/08/08 10:56:48;;;;;;;2.00;1.50;;;23.50;90.30;;;;;;5068770;28;20391;-71
2021/08/08 11:02:08;;;;;;;1.27;1.07;;;23.50;91.30;;;;;;5070098;28;20516;-71
2021/08/08 11:04:35;;;;;;;3.10;1.20;;;23.30;91.70;;;;;;5070203;28;20448;-71
2021/08/08 11:07:03;;;;;;;2.33;1.37;;;23.20;90.50;;;;;;5069840;28;20386;-71
2021/08/08 11:09:30;;;;;;;3.73;1.57;;;23.10;88.80;;;;;;5056043;28;20464;-71
2021/08/08 11:11:56;;;;;;;2.67;1.10;;;23.00;91.10;;;;;;5050182;28;20452;-71
2021/08/08 11:14:22;;;;;;;1.90;1.50;;;23.00;92.50;;;;;;5049893;28;20881;-71
2021/08/08 11:17:03;;;;;;;1.60;1.27;;;23.00;91.50;;;;;;5049686;28;20230;-71
2021/08/08 11:19:44;;;;;;;4.53;1.60;;;23.00;91.10;;;;;;5049928;28;20156;-71
2021/08/08 11:22:15;;;;;;;2.40;1.60;;;23.10;91.50;;;;;;5049569;28;20387;-71
2021/08/08 11:24:43;;;;;;;3.33;1.63;;;23.00;90.30;;;;;;5049583;28;20474;-71
2021/08/08 11:27:10;;;;;;;4.60;1.30;;;23.00;90.40;;;;;;5050879;28;20413;-71
2021/08/08 11:29:36;;;;;;;3.37;2.27;;;22.90;91.10;;;;;;5049485;28;20403;-71
2021/08/08 11:32:05;;;;;;;3.40;2.80;;;22.80;90.30;;;;;;5049300;28;20402;-71
2021/08/08 11:34:31;;;;;;;5.37;2.57;;;22.70;90.70;;;;;;5049990;28;20960;-71
2021/08/08 11:36:57;;;;;;;4.27;2.93;;;22.60;91.20;;;;;;5049322;28;20419;-71
2021/08/08 11:39:32;;;;;;;7.53;2.53;;;22.50;91.80;;;;;;5049198;28;20176;-71
2021/08/08 11:42:06;;;;;;;3.70;2.10;;;22.50;91.40;;;;;;5049795;28;20872;-71
2021/08/08 11:44:40;;;;;;;3.93;1.63;;;22.50;91.00;;;;;;5049891;28;20403;-71
2021/08/08 11:47:06;;;;;;;2.00;1.43;;;22.40;91.20;;;;;;5049178;28;20414;-71
2021/08/08 11:49:42;;;;;;;4.23;2.00;;;22.30;91.90;;;;;;5049358;28;20890;-71
2021/08/08 11:52:07;;;;;;;7.37;1.93;;;22.30;92.80;;;;;;5048966;28;20453;-71
2021/08/08 11:54:33;;;;;;;4.77;3.30;;;22.30;91.40;;;;;;5049293;28;20398;-71
2021/08/08 11:57:00;;;;;;;2.70;2.50;;;22.20;92.00;;;;;;5049373;28;20613;-71
2021/08/08 12:02:07;;;;;;;7.40;4.10;;;22.20;91.60;;;;;;5061044;28;20533;-71
2021/08/08 12:04:37;;;;;;;10.70;4.30;;;22.30;92.40;;;;;;5050231;28;20408;-71
2021/08/08 12:07:06;;;;;;;5.50;3.40;;;22.30;92.50;;;;;;5049957;28;20391;-71
2021/08/08 12:09:33;;;;;;;3.70;1.93;;;22.30;92.40;;;;;;5050431;28;20860;-71
2021/08/08 12:12:00;;;;;;;2.97;2.40;;;22.30;92.40;;;;;;5049707;28;20382;-71
2021/08/08 12:14:43;;;;;;;4.10;1.93;;;22.30;92.60;;;;;;5049774;28;20391;-71
2021/08/08 12:19:50;;;;;;;4.03;1.97;;;22.20;92.30;;;;;;5094699;27;20523;-73
2021/08/08 12:22:19;;;;;;;2.80;2.00;;;22.10;92.50;;;;;;5089870;28;20397;-73
2021/08/08 12:24:48;;;;;;;3.30;1.77;;;22.20;94.50;;;;;;5090513;28;20878;-73
2021/08/08 12:27:17;;;;;;;1.20;1.10;;;22.10;92.90;;;;;;5090178;28;20870;-73
2021/08/08 12:29:45;;;;;;;3.90;1.67;;;22.20;92.00;;;;;;5089907;28;20386;-73
2021/08/08 12:32:14;;;;;;;1.50;1.40;;;22.20;92.60;;;;;;5089857;28;20417;-73
2021/08/08 12:34:41;;;;;;;3.30;1.53;;;22.20;94.10;;;;;;5089921;28;20412;-73
2021/08/08 12:37:09;;;;;;;1.50;1.00;;;22.20;91.20;;;;;;5089732;28;20397;-73
2021/08/08 12:39:36;;;;;;;2.20;1.27;;;22.20;91.80;;;;;;5089846;28;20973;-73
2021/08/08 12:42:03;;;;;;;2.20;1.07;;;22.10;91.80;;;;;;5089726;28;20390;-73
2021/08/08 12:44:33;;;;;;;1.73;1.33;;;21.90;92.20;;;;;;5089690;28;20381;-73
2021/08/08 12:47:00;;;;;;;6.20;1.80;;;21.90;92.60;;;;;;5079685;28;20770;-72
2021/08/08 12:49:33;;;;;;;2.40;1.30;;;21.90;92.70;;;;;;5069282;28;20394;-72
2021/08/08 12:51:59;;;;;;;4.63;1.20;;;21.80;93.50;;;;;;5087967;28;20420;-72
2021/08/08 12:54:24;;;;;;;2.73;1.60;;;21.70;93.60;;;;;;5089826;28;20756;-72
2021/08/08 12:56:50;;;;;;;2.10;1.50;;;21.60;93.20;;;;;;5089498;28;20264;-72